Time;durP1;ratioP1;P1;durP2;ratioP2;P2;SDS_P1;SDS_P2;PMS_P1;PMS_P2;Temp;Humidity;BMP_temperature;BMP_pressure;BME280_temperature;BME280_humidity;BME280_pressure;Samples;Min_cycle;Max_cycle;Signal;HPM_P1;HPM_P2
2022/11/10 00:00:38;;;;;;;;;;;11.80;99.90;;;;;;1943292;72;20150;-75
2022/11/10 00:03:05;;;;;;;;;;;11.80;99.90;;;;;;1944383;73;20350;-75
2022/11/10 00:05:32;;;;;;;;;;;11.80;99.90;;;;;;1928293;73;20332;-76
2022/11/10 00:08:03;;;;;;;;;;;11.80;99.90;;;;;;1931418;72;20146;-76
2022/11/10 00:10:30;;;;;;;;;;;11.80;99.90;;;;;;1951276;73;20119;-76
2022/11/10 00:13:00;;;;;;;;;;;11.80;99.90;;;;;;1931641;73;20402;-74
2022/11/10 00:18:11;;;;;;;;;;;11.70;99.90;;;;;;1940250;72;20161;-73
2022/11/10 00:20:38;;;;;;;;;;;11.70;99.90;;;;;;1946822;74;20214;-73
2022/11/10 00:23:05;;;;;;;;;;;11.70;99.90;;;;;;1942601;73;20104;-75
2022/11/10 00:25:31;;;;;;;;;;;11.70;99.90;;;;;;1948147;73;20146;-74
2022/11/10 00:27:58;;;;;;;;;;;11.60;99.90;;;;;;1955702;73;20198;-75
2022/11/10 00:30:25;;;;;;;;;;;11.70;99.90;;;;;;1932333;72;20119;-74
2022/11/10 00:32:52;;;;;;;;;;;11.60;99.90;;;;;;1938428;72;20145;-74
2022/11/10 00:35:19;;;;;;;;;;;11.50;99.90;;;;;;1933209;72;20104;-74
2022/11/10 00:37:46;;;;;;;;;;;11.70;99.90;;;;;;1924514;73;20373;-74
2022/11/10 00:40:12;;;;;;;;;;;11.60;99.90;;;;;;1917359;73;20199;-72
2022/11/10 00:42:39;;;;;;;;;;;11.70;99.90;;;;;;1942637;72;20351;-72
2022/11/10 00:45:06;;;;;;;;;;;11.70;99.90;;;;;;1941712;72;20119;-73
2022/11/10 00:47:33;;;;;;;;;;;11.70;99.90;;;;;;1939109;72;20115;-72
2022/11/10 00:49:59;;;;;;;;;;;11.60;99.90;;;;;;1930413;72;20119;-74
2022/11/10 00:52:26;;;;;;;;;;;11.70;99.90;;;;;;1943880;72;20326;-75
2022/11/10 00:54:53;;;;;;;;;;;11.70;99.90;;;;;;1953649;72;20111;-74
2022/11/10 00:57:19;;;;;;;;;;;11.70;99.90;;;;;;1940497;72;20370;-75
2022/11/10 00:59:46;;;;;;;;;;;11.70;99.90;;;;;;1941691;72;20108;-72
2022/11/10 01:02:13;;;;;;;;;;;11.70;99.90;;;;;;1946729;73;20147;-72
2022/11/10 01:04:40;;;;;;;;;;;11.70;99.90;;;;;;1946553;72;20109;-73
2022/11/10 01:07:06;;;;;;;;;;;11.70;99.90;;;;;;1940354;72;20185;-73
2022/11/10 01:09:33;;;;;;;;;;;11.50;99.90;;;;;;1946087;72;20169;-73
2022/11/10 01:12:00;;;;;;;;;;;11.40;99.90;;;;;;1920220;73;20340;-72
2022/11/10 01:14:26;;;;;;;;;;;11.50;99.90;;;;;;1951266;73;20119;-73
2022/11/10 01:16:53;;;;;;;;;;;11.60;99.90;;;;;;1949735;72;20166;-72
2022/11/10 01:19:20;;;;;;;;;;;11.60;99.90;;;;;;1945931;73;20104;-72
2022/11/10 01:21:48;;;;;;;;;;;11.60;99.90;;;;;;1961920;72;20139;-73
2022/11/10 01:24:16;;;;;;;;;;;11.70;99.90;;;;;;1950189;72;20115;-73
2022/11/10 01:26:43;;;;;;;;;;;11.70;99.90;;;;;;1945474;72;20216;-74
2022/11/10 01:29:10;;;;;;;;;;;11.70;99.90;;;;;;1958554;73;20119;-73
2022/11/10 01:31:37;;;;;;;;;;;11.70;99.90;;;;;;1961765;73;20143;-73
2022/11/10 01:34:04;;;;;;;;;;;11.60;99.90;;;;;;1955308;73;20137;-74
2022/11/10 01:36:31;;;;;;;;;;;11.70;99.90;;;;;;1942745;72;20109;-73
2022/11/10 01:38:58;;;;;;;;;;;11.60;99.90;;;;;;1954512;72;20188;-74
2022/11/10 01:41:24;;;;;;;;;;;11.50;99.90;;;;;;1940528;73;20160;-72
2022/11/10 01:43:51;;;;;;;;;;;11.60;99.90;;;;;;1939564;72;20113;-74
2022/11/10 01:46:18;;;;;;;;;;;11.60;99.90;;;;;;1942921;73;20146;-72
2022/11/10 01:48:58;;;;;;;;;;;11.60;99.90;;;;;;1961996;71;20339;-72
2022/11/10 01:51:29;;;;;;;;;;;11.50;99.90;;;;;;1958879;72;20123;-73
2022/11/10 01:53:57;;;;;;;;;;;11.50;99.90;;;;;;1947412;73;20332;-72
2022/11/10 01:56:24;;;;;;;;;;;11.40;99.90;;;;;;1946266;72;20362;-72
2022/11/10 01:58:52;;;;;;;;;;;11.40;99.90;;;;;;1940001;72;20162;-73
2022/11/10 02:01:19;;;;;;;;;;;11.40;99.90;;;;;;1962552;72;20323;-72
2022/11/10 02:03:47;;;;;;;;;;;11.40;99.90;;;;;;1927579;72;20119;-72
2022/11/10 02:06:14;;;;;;;;;;;11.50;99.90;;;;;;1953639;73;20319;-72
2022/11/10 02:08:42;;;;;;;;;;;11.40;99.90;;;;;;1962310;73;20115;-73
2022/11/10 02:11:08;;;;;;;;;;;11.50;99.90;;;;;;1924397;73;20151;-72
2022/11/10 02:13:35;;;;;;;;;;;11.30;99.90;;;;;;1922719;72;20186;-73
2022/11/10 02:16:02;;;;;;;;;;;11.30;99.90;;;;;;1955252;73;20107;-73
2022/11/10 02:18:28;;;;;;;;;;;11.40;99.90;;;;;;1947243;72;20166;-72
2022/11/10 02:20:55;;;;;;;;;;;11.30;99.90;;;;;;1948840;72;20250;-73
2022/11/10 02:23:33;;;;;;;;;;;11.20;99.90;;;;;;1940451;73;20356;-72
2022/11/10 02:26:00;;;;;;;;;;;11.10;99.90;;;;;;1927146;72;20100;-73
2022/11/10 02:28:26;;;;;;;;;;;11.00;99.90;;;;;;1947114;72;20108;-73
2022/11/10 02:30:53;;;;;;;;;;;10.90;99.90;;;;;;1945190;72;20579;-74
2022/11/10 02:33:20;;;;;;;;;;;10.80;99.90;;;;;;1952553;73;20100;-74
2022/11/10 02:35:47;;;;;;;;;;;10.80;99.90;;;;;;1950330;72;20202;-74
2022/11/10 02:38:14;;;;;;;;;;;10.60;99.90;;;;;;1947071;73;20115;-74
2022/11/10 02:40:40;;;;;;;;;;;10.60;99.90;;;;;;1950157;72;20108;-73
2022/11/10 02:43:09;;;;;;;;;;;10.50;99.90;;;;;;1946736;74;20380;-73
2022/11/10 02:45:40;;;;;;;;;;;10.50;99.90;;;;;;1929260;72;20165;-73
2022/11/10 02:48:04;;;;;;;;;;;10.40;99.90;;;;;;1936426;72;20119;-73
2022/11/10 02:50:30;;;;;;;;;;;10.40;99.90;;;;;;1922205;73;20153;-73
2022/11/10 02:52:57;;;;;;;;;;;10.30;99.90;;;;;;1933136;72;20167;-73
2022/11/10 02:55:24;;;;;;;;;;;10.30;99.90;;;;;;1916286;72;20325;-74
2022/11/10 02:57:50;;;;;;;;;;;10.30;99.90;;;;;;1962582;73;20112;-73
2022/11/10 03:00:17;;;;;;;;;;;10.30;99.90;;;;;;1963654;73;20390;-73
2022/11/10 03:02:44;;;;;;;;;;;10.30;99.90;;;;;;1962338;73;20319;-74
2022/11/10 03:05:11;;;;;;;;;;;10.30;99.90;;;;;;1958951;73;20112;-74
2022/11/10 03:07:38;;;;;;;;;;;10.40;99.90;;;;;;1941811;72;20124;-73
2022/11/10 03:10:05;;;;;;;;;;;10.30;99.90;;;;;;1930477;72;20208;-74
2022/11/10 03:12:31;;;;;;;;;;;10.30;99.90;;;;;;1935321;73;20119;-73
2022/11/10 03:14:58;;;;;;;;;;;10.30;99.90;;;;;;1927302;73;20119;-74
2022/11/10 03:17:25;;;;;;;;;;;10.30;99.90;;;;;;1949467;71;20170;-73
2022/11/10 03:19:52;;;;;;;;;;;10.20;99.90;;;;;;1946596;72;20104;-74
2022/11/10 03:22:18;;;;;;;;;;;10.10;99.90;;;;;;1938101;72;20147;-73
2022/11/10 03:24:45;;;;;;;;;;;10.10;99.90;;;;;;1955550;73;20381;-73
2022/11/10 03:27:12;;;;;;;;;;;10.00;99.90;;;;;;1941374;72;20153;-73
2022/11/10 03:29:38;;;;;;;;;;;10.00;99.90;;;;;;1932918;72;20956;-74
2022/11/10 03:32:05;;;;;;;;;;;9.90;99.90;;;;;;1928450;72;20115;-74
2022/11/10 03:34:32;;;;;;;;;;;9.90;99.90;;;;;;1944074;72;20112;-72
2022/11/10 03:36:58;;;;;;;;;;;9.90;99.90;;;;;;1927971;72;20116;-74
2022/11/10 03:39:25;;;;;;;;;;;9.90;99.90;;;;;;1957722;72;20153;-72
2022/11/10 03:41:52;;;;;;;;;;;10.00;99.90;;;;;;1950575;73;20120;-73
2022/11/10 03:44:18;;;;;;;;;;;9.90;99.90;;;;;;1942292;72;20112;-73
2022/11/10 03:46:45;;;;;;;;;;;10.00;99.90;;;;;;1941744;73;20108;-73
2022/11/10 03:49:12;;;;;;;;;;;10.00;99.90;;;;;;1930849;72;20157;-72
2022/11/10 03:51:39;;;;;;;;;;;9.90;99.90;;;;;;1922823;73;20154;-73
2022/11/10 03:54:06;;;;;;;;;;;10.00;99.90;;;;;;1944315;72;20150;-72
2022/11/10 03:56:32;;;;;;;;;;;10.00;99.90;;;;;;1936822;72;20119;-72
2022/11/10 03:58:59;;;;;;;;;;;9.90;99.90;;;;;;1962978;72;20119;-72
2022/11/10 04:01:26;;;;;;;;;;;9.70;99.90;;;;;;1953585;73;20115;-72
2022/11/10 04:03:52;;;;;;;;;;;9.70;99.90;;;;;;1950396;73;20184;-73
2022/11/10 04:09:04;;;;;;;;;;;9.60;99.90;;;;;;1940030;72;20143;-72
2022/11/10 04:17:01;;;;;;;;;;;9.50;99.90;;;;;;1927842;72;20175;-73
2022/11/10 04:19:28;;;;;;;;;;;9.50;99.90;;;;;;1928182;73;20205;-73
2022/11/10 04:21:54;;;;;;;;;;;9.50;99.90;;;;;;1927140;73;20116;-74
2022/11/10 04:24:21;;;;;;;;;;;9.50;99.90;;;;;;1962347;72;20124;-74
2022/11/10 04:26:48;;;;;;;;;;;9.40;99.90;;;;;;1945050;72;20116;-73
2022/11/10 04:29:15;;;;;;;;;;;9.40;99.90;;;;;;1942972;72;20213;-73
2022/11/10 04:31:42;;;;;;;;;;;9.30;99.90;;;;;;1923609;73;20120;-72
2022/11/10 04:34:09;;;;;;;;;;;9.30;99.90;;;;;;1940832;73;20376;-73
2022/11/10 04:36:37;;;;;;;;;;;9.30;99.90;;;;;;1957720;73;20174;-73
2022/11/10 04:39:04;;;;;;;;;;;9.20;99.90;;;;;;1923457;72;20147;-73
2022/11/10 04:41:30;;;;;;;;;;;9.20;99.90;;;;;;1946593;73;20104;-73
2022/11/10 04:43:57;;;;;;;;;;;9.10;99.90;;;;;;1933061;72;20112;-73
2022/11/10 04:46:26;;;;;;;;;;;9.00;99.90;;;;;;1960418;73;20123;-73
2022/11/10 04:48:52;;;;;;;;;;;9.10;99.90;;;;;;1936750;73;20104;-74
2022/11/10 04:51:19;;;;;;;;;;;9.10;99.90;;;;;;1929412;72;20123;-73
2022/11/10 04:53:46;;;;;;;;;;;9.10;99.90;;;;;;1954182;73;20390;-74
2022/11/10 04:56:16;;;;;;;;;;;8.90;99.90;;;;;;1920337;73;20120;-74
2022/11/10 04:58:43;;;;;;;;;;;8.80;99.90;;;;;;1928769;72;20336;-74
2022/11/10 05:01:11;;;;;;;;;;;8.90;99.90;;;;;;1914978;72;20178;-74
2022/11/10 05:03:38;;;;;;;;;;;8.70;99.90;;;;;;1928013;74;20461;-73
2022/11/10 05:06:05;;;;;;;;;;;8.80;99.90;;;;;;1931081;73;20104;-74
2022/11/10 05:08:31;;;;;;;;;;;8.90;99.90;;;;;;1935250;73;20116;-74
2022/11/10 05:10:58;;;;;;;;;;;8.80;99.90;;;;;;1921772;72;20256;-73
2022/11/10 05:13:25;;;;;;;;;;;8.80;99.90;;;;;;1948172;73;20120;-73
2022/11/10 05:15:52;;;;;;;;;;;8.80;99.90;;;;;;1933853;72;20320;-73
2022/11/10 05:18:19;;;;;;;;;;;8.60;99.90;;;;;;1944478;72;20355;-72
2022/11/10 05:20:45;;;;;;;;;;;8.70;99.90;;;;;;1943585;72;20119;-74
2022/11/10 05:25:56;;;;;;;;;;;8.60;99.90;;;;;;1932380;72;20141;-73
2022/11/10 05:28:23;;;;;;;;;;;8.60;99.90;;;;;;1929243;72;20351;-74
2022/11/10 05:30:50;;;;;;;;;;;8.50;99.90;;;;;;1917818;73;20119;-73
2022/11/10 05:33:17;;;;;;;;;;;8.50;99.90;;;;;;1956606;73;20120;-73
2022/11/10 05:35:43;;;;;;;;;;;8.50;99.90;;;;;;1939874;73;20120;-73
2022/11/10 05:38:10;;;;;;;;;;;8.40;99.90;;;;;;1930817;73;20160;-73
2022/11/10 05:40:37;;;;;;;;;;;8.40;99.90;;;;;;1933822;72;20192;-73
2022/11/10 05:43:03;;;;;;;;;;;8.30;99.90;;;;;;1937559;72;20131;-73
2022/11/10 05:45:30;;;;;;;;;;;8.30;99.90;;;;;;1931552;72;20119;-74
2022/11/10 05:47:57;;;;;;;;;;;8.30;99.90;;;;;;1937722;73;20145;-75
2022/11/10 05:50:24;;;;;;;;;;;8.30;99.90;;;;;;1950270;73;20112;-74
2022/11/10 05:52:51;;;;;;;;;;;8.30;99.90;;;;;;1946866;74;20166;-75
2022/11/10 05:55:19;;;;;;;;;;;8.20;99.90;;;;;;1939103;72;20159;-75
2022/11/10 05:57:46;;;;;;;;;;;8.10;99.90;;;;;;1951394;73;20112;-74
2022/11/10 06:00:13;;;;;;;;;;;8.00;99.90;;;;;;1947855;72;20154;-73
2022/11/10 06:02:40;;;;;;;;;;;7.90;99.90;;;;;;1946644;72;20150;-73
2022/11/10 06:05:07;;;;;;;;;;;7.90;99.90;;;;;;1946690;72;20112;-73
2022/11/10 06:07:34;;;;;;;;;;;7.90;99.90;;;;;;1946693;74;20115;-74
2022/11/10 06:10:00;;;;;;;;;;;7.90;99.90;;;;;;1946655;74;20154;-74
2022/11/10 06:12:30;;;;;;;;;;;7.90;99.90;;;;;;1926424;73;20121;-74
2022/11/10 06:14:57;;;;;;;;;;;7.80;99.90;;;;;;1933222;72;20112;-74
2022/11/10 06:17:25;;;;;;;;;;;7.90;99.90;;;;;;1937102;72;20116;-73
2022/11/10 06:19:52;;;;;;;;;;;7.90;99.90;;;;;;1945579;73;20120;-74
2022/11/10 06:22:19;;;;;;;;;;;7.90;99.90;;;;;;1947314;72;20162;-74
2022/11/10 06:24:45;;;;;;;;;;;7.90;99.90;;;;;;1936962;72;20196;-73
2022/11/10 06:27:13;;;;;;;;;;;7.90;99.90;;;;;;1916765;73;20457;-73
2022/11/10 06:29:40;;;;;;;;;;;7.80;99.90;;;;;;1928513;72;20115;-73
2022/11/10 06:32:06;;;;;;;;;;;7.90;99.90;;;;;;1935677;73;20115;-73
2022/11/10 06:34:33;;;;;;;;;;;7.90;99.90;;;;;;1937438;73;20115;-74
2022/11/10 06:37:00;;;;;;;;;;;7.90;99.90;;;;;;1940774;72;20404;-74
2022/11/10 06:39:27;;;;;;;;;;;7.90;99.90;;;;;;1935445;72;20120;-74
2022/11/10 06:41:53;;;;;;;;;;;7.90;99.90;;;;;;1921540;73;20182;-74
2022/11/10 06:44:20;;;;;;;;;;;7.80;99.90;;;;;;1942961;73;20116;-74
2022/11/10 06:46:47;;;;;;;;;;;7.90;99.90;;;;;;1946726;74;20100;-74
2022/11/10 06:49:13;;;;;;;;;;;8.00;99.90;;;;;;1926508;73;20124;-74
2022/11/10 06:51:40;;;;;;;;;;;8.00;99.90;;;;;;1931305;72;20113;-74
2022/11/10 06:54:07;;;;;;;;;;;8.10;99.90;;;;;;1946022;72;20113;-74
2022/11/10 06:56:34;;;;;;;;;;;8.10;99.90;;;;;;1944280;72;20108;-74
2022/11/10 06:59:00;;;;;;;;;;;8.10;99.90;;;;;;1959081;72;20119;-74
2022/11/10 07:01:28;;;;;;;;;;;8.10;99.90;;;;;;1939338;73;20185;-73
2022/11/10 07:03:55;;;;;;;;;;;8.10;99.90;;;;;;1946619;74;20116;-73
2022/11/10 07:06:22;;;;;;;;;;;8.30;99.90;;;;;;1929393;72;20156;-73
2022/11/10 07:08:48;;;;;;;;;;;8.40;99.90;;;;;;1939508;73;20182;-74
2022/11/10 07:11:15;;;;;;;;;;;8.60;99.90;;;;;;1946853;74;20112;-73
2022/11/10 07:13:42;;;;;;;;;;;8.60;99.90;;;;;;1907312;73;20112;-73
2022/11/10 07:16:09;;;;;;;;;;;8.60;99.90;;;;;;1940276;72;20171;-73
2022/11/10 07:18:37;;;;;;;;;;;8.60;99.90;;;;;;1956720;73;20344;-75
2022/11/10 07:21:07;;;;;;;;;;;8.60;99.90;;;;;;1959040;72;20210;-74
2022/11/10 07:23:33;;;;;;;;;;;8.50;99.90;;;;;;1955895;72;20104;-74
2022/11/10 07:26:00;;;;;;;;;;;8.50;99.90;;;;;;1927923;73;20158;-74
2022/11/10 07:28:28;;;;;;;;;;;8.40;99.90;;;;;;1938602;73;20115;-74
2022/11/10 07:30:55;;;;;;;;;;;8.40;99.90;;;;;;1946564;72;20124;-74
2022/11/10 07:33:24;;;;;;;;;;;8.40;99.90;;;;;;1944536;72;20105;-74
2022/11/10 07:35:57;;;;;;;;;;;8.40;99.90;;;;;;1919500;72;20124;-73
2022/11/10 07:38:24;;;;;;;;;;;8.50;99.90;;;;;;1917105;73;20139;-74
2022/11/10 07:40:51;;;;;;;;;;;8.40;99.90;;;;;;1937417;72;20123;-74
2022/11/10 07:43:19;;;;;;;;;;;8.40;99.90;;;;;;1947008;73;20163;-74
2022/11/10 07:45:46;;;;;;;;;;;8.60;99.90;;;;;;1926508;72;20123;-74
2022/11/10 07:48:12;;;;;;;;;;;8.70;99.90;;;;;;1957269;73;20124;-75
2022/11/10 07:50:39;;;;;;;;;;;8.70;99.90;;;;;;1946187;73;20417;-74
2022/11/10 07:53:08;;;;;;;;;;;8.70;99.90;;;;;;1954606;72;20157;-74
2022/11/10 07:55:34;;;;;;;;;;;8.50;99.90;;;;;;1944878;72;20130;-74
2022/11/10 07:58:01;;;;;;;;;;;8.60;99.90;;;;;;1925739;73;20127;-74
2022/11/10 08:00:28;;;;;;;;;;;8.50;99.90;;;;;;1936143;73;20096;-76
2022/11/10 08:02:54;;;;;;;;;;;8.70;99.90;;;;;;1927432;72;20101;-76
2022/11/10 08:05:21;;;;;;;;;;;8.60;99.90;;;;;;1929295;73;20155;-75
2022/11/10 08:07:48;;;;;;;;;;;8.70;99.90;;;;;;1948305;72;20106;-75
2022/11/10 08:10:14;;;;;;;;;;;8.80;99.90;;;;;;1935772;72;20171;-74
2022/11/10 08:12:41;;;;;;;;;;;8.80;99.90;;;;;;1951366;72;20183;-75
2022/11/10 08:15:09;;;;;;;;;;;8.90;99.90;;;;;;1947368;72;20112;-75
2022/11/10 08:17:36;;;;;;;;;;;8.80;99.90;;;;;;1947104;74;20124;-75
2022/11/10 08:20:03;;;;;;;;;;;8.80;99.90;;;;;;1945631;73;20108;-74
2022/11/10 08:22:30;;;;;;;;;;;8.80;99.90;;;;;;1930758;72;20290;-74
2022/11/10 08:24:57;;;;;;;;;;;8.90;99.90;;;;;;1926124;72;20150;-75
2022/11/10 08:27:23;;;;;;;;;;;9.00;99.90;;;;;;1924941;73;20112;-74
2022/11/10 08:29:50;;;;;;;;;;;9.20;99.90;;;;;;1934666;73;20222;-75
2022/11/10 08:32:17;;;;;;;;;;;9.40;99.90;;;;;;1936613;73;20368;-75
2022/11/10 08:34:43;;;;;;;;;;;9.60;99.90;;;;;;1928799;72;20146;-74
2022/11/10 08:37:10;;;;;;;;;;;9.70;99.90;;;;;;1926246;73;20382;-75
2022/11/10 08:39:37;;;;;;;;;;;9.80;99.90;;;;;;1944807;73;20115;-75
2022/11/10 08:42:05;;;;;;;;;;;9.90;99.90;;;;;;1944574;73;20394;-75
2022/11/10 08:44:31;;;;;;;;;;;10.00;99.90;;;;;;1946447;72;20146;-75
2022/11/10 08:46:58;;;;;;;;;;;10.10;99.90;;;;;;1937072;72;20209;-73
2022/11/10 08:49:25;;;;;;;;;;;10.40;99.90;;;;;;1924812;73;20116;-75
2022/11/10 08:51:52;;;;;;;;;;;10.70;99.90;;;;;;1945919;73;20127;-76
2022/11/10 08:54:18;;;;;;;;;;;10.40;99.90;;;;;;1949926;72;20112;-76
2022/11/10 08:56:45;;;;;;;;;;;10.40;99.90;;;;;;1937915;72;20343;-75
2022/11/10 08:59:12;;;;;;;;;;;10.20;99.90;;;;;;1941387;72;20112;-76
2022/11/10 09:01:39;;;;;;;;;;;10.30;99.90;;;;;;1931465;73;20189;-76
2022/11/10 09:04:05;;;;;;;;;;;10.30;99.90;;;;;;1947286;73;20119;-75
2022/11/10 09:06:32;;;;;;;;;;;10.40;99.90;;;;;;1951559;73;20185;-76
2022/11/10 09:08:59;;;;;;;;;;;10.30;99.90;;;;;;1928727;73;20120;-75
2022/11/10 09:11:25;;;;;;;;;;;10.20;99.90;;;;;;1951768;73;20120;-75
2022/11/10 09:13:52;;;;;;;;;;;10.20;99.90;;;;;;1932575;72;20151;-75
2022/11/10 09:16:19;;;;;;;;;;;10.10;99.90;;;;;;1958810;72;20197;-75
2022/11/10 09:18:46;;;;;;;;;;;10.20;99.90;;;;;;1938500;72;20150;-75
2022/11/10 09:21:12;;;;;;;;;;;10.30;99.90;;;;;;1947967;73;20324;-74
2022/11/10 09:23:39;;;;;;;;;;;10.70;99.90;;;;;;1920000;72;20178;-75
2022/11/10 09:26:06;;;;;;;;;;;10.90;99.90;;;;;;1920288;72;20124;-74
2022/11/10 09:28:33;;;;;;;;;;;11.30;99.90;;;;;;1925077;72;20111;-75
2022/11/10 09:30:59;;;;;;;;;;;11.40;99.90;;;;;;1944541;72;20366;-74
2022/11/10 09:33:26;;;;;;;;;;;11.70;99.90;;;;;;1945379;72;20120;-75
2022/11/10 09:35:54;;;;;;;;;;;11.90;99.90;;;;;;1924714;72;20351;-75
2022/11/10 09:38:21;;;;;;;;;;;11.90;99.90;;;;;;1933595;72;20157;-74
2022/11/10 09:40:49;;;;;;;;;;;12.00;99.90;;;;;;1961040;72;20335;-75
2022/11/10 09:43:18;;;;;;;;;;;11.90;99.90;;;;;;1937552;72;20143;-75
2022/11/10 09:45:45;;;;;;;;;;;12.00;99.90;;;;;;1946916;74;20330;-74
2022/11/10 09:48:16;;;;;;;;;;;12.10;99.90;;;;;;1933293;73;20361;-74
2022/11/10 09:51:00;;;;;;;;;;;12.40;99.90;;;;;;1936023;73;20146;-75
2022/11/10 09:53:30;;;;;;;;;;;12.60;99.90;;;;;;1924579;72;20105;-75
2022/11/10 09:56:01;;;;;;;;;;;13.10;99.90;;;;;;1959172;72;20119;-75
2022/11/10 09:58:36;;;;;;;;;;;13.00;99.90;;;;;;1946697;72;20109;-75
2022/11/10 10:01:07;;;;;;;;;;;12.60;99.90;;;;;;1934821;72;20157;-75
2022/11/10 10:03:34;;;;;;;;;;;12.80;99.90;;;;;;1944951;72;20169;-74
2022/11/10 10:06:10;;;;;;;;;;;12.80;99.90;;;;;;1946770;74;20120;-74
2022/11/10 10:08:41;;;;;;;;;;;12.90;99.90;;;;;;1942783;72;20323;-74
2022/11/10 10:11:13;;;;;;;;;;;13.60;99.90;;;;;;1929839;72;20123;-75
2022/11/10 10:13:53;;;;;;;;;;;13.80;99.90;;;;;;1960404;73;20410;-75
2022/11/10 10:16:21;;;;;;;;;;;14.20;99.90;;;;;;1936038;72;20358;-75
2022/11/10 10:18:49;;;;;;;;;;;14.30;99.90;;;;;;1930620;72;20116;-75
2022/11/10 10:21:33;;;;;;;;;;;14.10;99.90;;;;;;1955111;72;20123;-75
2022/11/10 10:24:01;;;;;;;;;;;14.00;99.90;;;;;;1945483;73;20127;-75
2022/11/10 10:26:31;;;;;;;;;;;14.20;99.90;;;;;;1932881;72;20127;-75
2022/11/10 10:29:00;;;;;;;;;;;14.20;99.90;;;;;;1919952;73;20104;-74
2022/11/10 10:31:32;;;;;;;;;;;14.60;99.90;;;;;;1956817;73;20115;-75
2022/11/10 10:33:59;;;;;;;;;;;14.50;99.90;;;;;;1929737;72;20244;-75
2022/11/10 10:36:29;;;;;;;;;;;14.50;99.90;;;;;;1939961;72;20119;-76
2022/11/10 10:38:56;;;;;;;;;;;14.60;99.90;;;;;;1921256;72;20103;-75
2022/11/10 10:41:27;;;;;;;;;;;14.70;99.90;;;;;;1930404;73;20162;-75
2022/11/10 10:43:55;;;;;;;;;;;15.00;99.90;;;;;;1925238;72;20327;-74
2022/11/10 10:46:25;;;;;;;;;;;15.70;99.90;;;;;;1930947;72;20335;-75
2022/11/10 10:48:51;;;;;;;;;;;15.60;99.90;;;;;;1959635;73;20225;-77
2022/11/10 10:51:28;;;;;;;;;;;15.70;99.90;;;;;;1947814;72;20124;-79
2022/11/10 10:53:55;;;;;;;;;;;15.60;99.90;;;;;;1946562;72;20146;-78
2022/11/10 10:56:27;;;;;;;;;;;15.60;99.90;;;;;;1920162;72;20104;-79
2022/11/10 10:58:56;;;;;;;;;;;15.80;99.90;;;;;;1955471;72;20108;-79
2022/11/10 11:01:30;;;;;;;;;;;15.90;99.90;;;;;;1940967;72;20300;-79
2022/11/10 11:03:57;;;;;;;;;;;15.90;99.90;;;;;;1960979;73;20108;-71
2022/11/10 11:06:25;;;;;;;;;;;15.80;99.90;;;;;;1937122;73;20109;-71
2022/11/10 11:08:57;;;;;;;;;;;16.20;99.90;;;;;;1936259;73;20373;-71
2022/11/10 11:11:25;;;;;;;;;;;16.60;99.90;;;;;;1947583;73;20170;-72
2022/11/10 11:13:51;;;;;;;;;;;17.20;99.90;;;;;;1946739;74;20112;-70
2022/11/10 11:16:18;;;;;;;;;;;16.60;99.90;;;;;;1940746;73;20212;-71
2022/11/10 11:18:45;;;;;;;;;;;16.80;99.90;;;;;;1952345;73;20343;-71
2022/11/10 11:21:31;;;;;;;;;;;16.60;99.90;;;;;;1926994;72;20119;-72
2022/11/10 11:23:59;;;;;;;;;;;16.60;99.90;;;;;;1918819;73;20116;-73
2022/11/10 11:26:30;;;;;;;;;;;16.40;99.90;;;;;;1934922;73;20108;-76
2022/11/10 11:28:58;;;;;;;;;;;16.60;99.90;;;;;;1953727;73;20111;-73
2022/11/10 11:31:32;;;;;;;;;;;16.60;99.90;;;;;;1952515;72;20120;-73
2022/11/10 11:34:10;;;;;;;;;;;16.30;99.90;;;;;;1946779;74;20193;-71
2022/11/10 11:36:41;;;;;;;;;;;16.40;99.90;;;;;;1899646;73;20346;-73
2022/11/10 11:39:12;;;;;;;;;;;16.70;99.90;;;;;;1935919;73;20145;-71
2022/11/10 11:41:59;;;;;;;;;;;16.60;99.90;;;;;;1942534;73;20238;-72
2022/11/10 11:44:30;;;;;;;;;;;16.70;99.90;;;;;;1937728;72;20115;-71
2022/11/10 11:46:58;;;;;;;;;;;16.50;99.90;;;;;;1929259;72;20192;-69
2022/11/10 11:49:36;;;;;;;;;;;16.70;99.90;;;;;;1942320;72;20331;-70
2022/11/10 11:52:04;;;;;;;;;;;16.90;99.90;;;;;;1936824;72;20119;-71
2022/11/10 11:54:38;;;;;;;;;;;16.70;99.90;;;;;;1934447;73;20154;-70
2022/11/10 11:57:09;;;;;;;;;;;17.10;99.90;;;;;;1931443;72;20127;-69
2022/11/10 11:59:38;;;;;;;;;;;17.80;99.90;;;;;;1933049;73;20119;-69
2022/11/10 12:02:22;;;;;;;;;;;18.10;99.90;;;;;;1957074;73;20193;-70
2022/11/10 12:05:07;;;;;;;;;;;17.60;99.90;;;;;;1947967;73;20220;-69
2022/11/10 12:07:52;;;;;;;;;;;17.70;99.90;;;;;;1921712;72;20108;-69
2022/11/10 12:10:26;;;;;;;;;;;17.80;99.90;;;;;;1942126;72;20166;-72
2022/11/10 12:13:04;;;;;;;;;;;18.00;99.90;;;;;;1934920;72;20124;-68
2022/11/10 12:15:50;;;;;;;;;;;18.00;99.90;;;;;;1845229;77;20154;-69
2022/11/10 12:18:19;;;;;;;;;;;18.00;99.90;;;;;;1951061;72;20150;-68
2022/11/10 12:20:56;;;;;;;;;;;17.60;99.90;;;;;;1952184;72;20316;-68
2022/11/10 12:23:27;;;;;;;;;;;17.30;99.90;;;;;;1924952;72;20146;-69
2022/11/10 12:25:55;;;;;;;;;;;17.50;99.90;;;;;;1938574;73;20119;-68
2022/11/10 12:28:24;;;;;;;;;;;17.70;99.90;;;;;;1941932;72;20185;-71
2022/11/10 12:30:51;;;;;;;;;;;17.90;99.90;;;;;;1929297;72;20136;-73
2022/11/10 12:33:35;;;;;;;;;;;18.20;99.90;;;;;;1943925;73;20127;-72
2022/11/10 12:36:06;;;;;;;;;;;18.60;99.90;;;;;;1947293;73;20111;-70
2022/11/10 12:38:51;;;;;;;;;;;19.30;99.90;;;;;;1947385;71;20207;-70
2022/11/10 12:41:18;;;;;;;;;;;19.10;99.90;;;;;;1939808;73;20124;-71
2022/11/10 12:43:52;;;;;;;;;;;18.30;99.90;;;;;;1930521;72;20146;-73
2022/11/10 12:46:19;;;;;;;;;;;17.50;99.90;;;;;;1928076;74;20146;-71
2022/11/10 12:48:53;;;;;;;;;;;17.70;99.90;;;;;;1921463;72;20127;-72
2022/11/10 12:51:21;;;;;;;;;;;17.40;99.90;;;;;;1940831;72;20259;-73
2022/11/10 12:53:48;;;;;;;;;;;17.60;99.90;;;;;;1928479;72;20154;-71
2022/11/10 12:56:28;;;;;;;;;;;17.50;99.90;;;;;;1955413;72;20240;-73
2022/11/10 12:59:13;;;;;;;;;;;17.60;99.90;;;;;;1925575;73;20136;-72
2022/11/10 13:01:42;;;;;;;;;;;17.60;99.90;;;;;;1945774;72;20189;-72
2022/11/10 13:04:11;;;;;;;;;;;17.40;99.90;;;;;;1936626;72;20337;-72
2022/11/10 13:06:39;;;;;;;;;;;17.70;99.90;;;;;;1952411;72;20123;-71
2022/11/10 13:09:07;;;;;;;;;;;18.00;99.90;;;;;;1911800;73;20170;-71
2022/11/10 13:11:34;;;;;;;;;;;17.60;99.90;;;;;;1938159;73;20120;-71
2022/11/10 13:14:02;;;;;;;;;;;17.50;99.90;;;;;;1947566;73;20315;-71
2022/11/10 13:16:39;;;;;;;;;;;17.70;99.90;;;;;;1941474;73;20213;-71
2022/11/10 13:19:11;;;;;;;;;;;17.70;99.90;;;;;;1952796;72;20115;-70
2022/11/10 13:21:51;;;;;;;;;;;18.00;99.90;;;;;;1939075;74;20111;-70
2022/11/10 13:24:25;;;;;;;;;;;18.10;99.90;;;;;;1946508;72;20124;-71
2022/11/10 13:26:54;;;;;;;;;;;17.90;99.90;;;;;;1941108;72;20120;-71
2022/11/10 13:29:36;;;;;;;;;;;18.00;99.90;;;;;;1945832;72;20157;-70
2022/11/10 13:32:17;;;;;;;;;;;17.90;99.90;;;;;;1936105;72;20111;-71
2022/11/10 13:34:46;;;;;;;;;;;18.60;99.90;;;;;;1919865;73;20191;-71
2022/11/10 13:37:31;;;;;;;;;;;18.60;99.90;;;;;;1931335;73;20208;-71
2022/11/10 13:39:59;;;;;;;;;;;18.70;99.90;;;;;;1952450;72;20108;-73
2022/11/10 13:42:27;;;;;;;;;;;17.90;99.90;;;;;;1916318;72;20352;-72
2022/11/10 13:44:53;;;;;;;;;;;17.80;99.90;;;;;;1933330;72;20143;-73
2022/11/10 13:47:33;;;;;;;;;;;17.90;99.90;;;;;;1946583;74;20217;-70
2022/11/10 13:49:52;;;;;;;;;;;18.10;99.90;;;;;;1932318;72;20237;-70
2022/11/10 13:52:19;;;;;;;;;;;18.40;99.90;;;;;;1940806;73;20149;-71
2022/11/10 13:55:00;;;;;;;;;;;18.60;99.90;;;;;;1926952;72;20115;-70
2022/11/10 13:57:30;;;;;;;;;;;18.70;99.90;;;;;;1919285;73;20378;-70
2022/11/10 13:59:59;;;;;;;;;;;18.70;99.90;;;;;;1952281;73;20229;-70
2022/11/10 14:02:39;;;;;;;;;;;18.40;99.90;;;;;;1962063;72;20108;-69
2022/11/10 14:05:06;;;;;;;;;;;17.90;99.90;;;;;;1930896;72;20339;-70
2022/11/10 14:07:35;;;;;;;;;;;18.60;99.90;;;;;;1920074;72;20158;-71
2022/11/10 14:10:05;;;;;;;;;;;18.60;99.90;;;;;;1922487;73;20150;-71
2022/11/10 14:12:36;;;;;;;;;;;18.50;99.90;;;;;;1941904;73;20124;-70
2022/11/10 14:15:05;;;;;;;;;;;18.80;99.90;;;;;;1952949;72;20357;-72
2022/11/10 14:17:36;;;;;;;;;;;19.10;99.90;;;;;;1932705;72;20189;-73
2022/11/10 14:20:02;;;;;;;;;;;18.60;99.90;;;;;;1942261;72;20161;-72
2022/11/10 14:22:32;;;;;;;;;;;19.10;99.90;;;;;;1926612;72;20167;-72
2022/11/10 14:25:06;;;;;;;;;;;19.40;99.90;;;;;;1954553;73;20111;-71
2022/11/10 14:27:34;;;;;;;;;;;19.50;99.90;;;;;;1955326;72;20149;-72
2022/11/10 14:30:09;;;;;;;;;;;19.80;99.90;;;;;;1931605;72;20344;-72
2022/11/10 14:32:36;;;;;;;;;;;19.20;99.90;;;;;;1939975;72;20335;-72
2022/11/10 14:35:03;;;;;;;;;;;19.10;99.90;;;;;;1942305;73;20120;-71
2022/11/10 14:37:30;;;;;;;;;;;19.10;99.90;;;;;;1927396;72;20297;-70
2022/11/10 14:39:57;;;;;;;;;;;19.00;99.90;;;;;;1942346;73;20340;-71
2022/11/10 14:42:27;;;;;;;;;;;19.20;99.90;;;;;;1936993;72;20373;-71